createdAt,value
2018-09-11T00:01:43.237Z,15.58
2018-09-11T00:04:11.708Z,15.59
2018-09-11T00:06:40.893Z,15.58
2018-09-11T00:09:11.322Z,15.58
2018-09-11T00:11:40.062Z,15.57
2018-09-11T00:14:08.564Z,15.55
2018-09-11T00:16:38.086Z,15.58
2018-09-11T00:19:06.775Z,15.55
2018-09-11T00:21:35.821Z,15.56
2018-09-11T00:24:04.320Z,15.57
2018-09-11T00:26:33.056Z,15.56
2018-09-11T00:29:02.182Z,15.55
2018-09-11T00:31:30.744Z,15.58
2018-09-11T00:33:59.402Z,15.58
2018-09-11T00:36:28.002Z,15.57
2018-09-11T00:38:57.154Z,15.57
2018-09-11T00:41:25.779Z,15.58
2018-09-11T00:43:54.570Z,15.58
2018-09-11T00:46:23.221Z,15.57
2018-09-11T00:48:52.058Z,15.32
2018-09-11T00:51:20.566Z,15.56
2018-09-11T00:53:49.178Z,15.56
2018-09-11T00:56:17.678Z,15.54
2018-09-11T00:58:46.240Z,15.53
2018-09-11T01:01:14.806Z,14.91
2018-09-11T01:03:43.298Z,15.53
2018-09-11T01:06:11.858Z,15.53
2018-09-11T01:08:40.366Z,15.53
2018-09-11T01:11:09.150Z,15.54
2018-09-11T01:13:37.850Z,15.55
2018-09-11T01:16:07.794Z,15.54
2018-09-11T01:18:36.450Z,15.53
2018-09-11T01:21:05.233Z,15.54
2018-09-11T01:23:33.902Z,15.54
2018-09-11T01:26:02.518Z,15.53
2018-09-11T01:28:31.306Z,15.18
2018-09-11T01:31:00.498Z,15.53
2018-09-11T01:33:29.403Z,14.90
2018-09-11T01:35:57.954Z,15.51
2018-09-11T01:38:26.716Z,15.48
2018-09-11T01:40:55.337Z,15.47
2018-09-11T01:43:23.849Z,15.47
2018-09-11T01:45:52.366Z,15.45
2018-09-11T01:48:20.890Z,15.44
2018-09-11T01:50:49.546Z,15.42
2018-09-11T01:53:18.108Z,15.31
2018-09-11T01:55:46.807Z,15.41
2018-09-11T01:58:15.285Z,15.38
2018-09-11T02:00:43.837Z,15.39
2018-09-11T02:03:12.406Z,15.38
2018-09-11T02:05:40.974Z,15.38
2018-09-11T02:08:09.641Z,15.39
2018-09-11T02:10:38.134Z,15.42
2018-09-11T02:13:06.914Z,15.38
2018-09-11T02:15:35.448Z,15.42
2018-09-11T02:18:04.186Z,15.43
2018-09-11T02:20:32.766Z,15.42
2018-09-11T02:23:01.612Z,15.44
2018-09-11T02:25:30.138Z,15.43
2018-09-11T02:27:58.858Z,15.44
2018-09-11T02:30:27.522Z,15.44
2018-09-11T02:32:56.173Z,15.44
2018-09-11T02:35:24.690Z,15.44
2018-09-11T02:37:53.213Z,15.42
2018-09-11T02:40:21.918Z,15.42
2018-09-11T02:42:50.519Z,15.41
2018-09-11T02:45:22.918Z,15.40
2018-09-11T02:47:52.720Z,15.38
2018-09-11T02:50:21.370Z,15.38
2018-09-11T02:52:50.289Z,15.38
2018-09-11T02:55:19.014Z,15.38
2018-09-11T02:57:47.547Z,15.36
2018-09-11T03:00:16.358Z,15.34
2018-09-11T03:02:44.915Z,15.29
2018-09-11T03:05:13.610Z,15.24
2018-09-11T03:07:42.409Z,15.24
2018-09-11T03:10:10.974Z,15.22
2018-09-11T03:12:40.031Z,15.21
2018-09-11T03:15:08.607Z,15.20
2018-09-11T03:17:37.662Z,15.20
2018-09-11T03:20:06.207Z,15.22
2018-09-11T03:22:35.014Z,15.20
2018-09-11T03:25:03.618Z,15.13
2018-09-11T03:27:32.170Z,15.20
2018-09-11T03:30:00.890Z,15.19
2018-09-11T03:32:29.372Z,15.19
2018-09-11T03:34:58.095Z,15.18
2018-09-11T03:37:26.652Z,15.18
2018-09-11T03:39:55.466Z,15.19
2018-09-11T03:42:23.926Z,15.19
2018-09-11T03:44:52.522Z,15.17
2018-09-11T03:47:21.111Z,15.17
2018-09-11T03:49:49.797Z,15.17
2018-09-11T03:52:18.687Z,15.17
2018-09-11T03:54:47.254Z,15.18
2018-09-11T03:57:16.019Z,15.18
2018-09-11T03:59:44.640Z,15.18
2018-09-11T04:02:13.548Z,15.19
2018-09-11T04:04:42.970Z,15.18
2018-09-11T04:07:11.599Z,15.19
2018-09-11T04:09:40.106Z,15.19
2018-09-11T04:12:08.642Z,15.19
2018-09-11T04:14:38.566Z,14.61
2018-09-11T04:17:07.293Z,15.20
2018-09-11T04:19:37.187Z,15.14
2018-09-11T04:22:06.378Z,15.18
2018-09-11T04:24:35.422Z,15.12
2018-09-11T04:27:03.982Z,15.23
2018-09-11T04:29:32.962Z,15.24
2018-09-11T04:32:01.646Z,15.27
2018-09-11T04:34:30.260Z,15.33
2018-09-11T04:36:58.754Z,15.35
2018-09-11T04:39:27.458Z,15.37
2018-09-11T04:41:55.971Z,15.37
2018-09-11T04:44:24.994Z,15.38
2018-09-11T04:46:54.342Z,15.38
2018-09-11T04:49:22.830Z,15.38
2018-09-11T04:51:52.131Z,15.38
2018-09-11T04:54:23.210Z,15.36
2018-09-11T04:56:56.185Z,15.37
2018-09-11T04:59:33.378Z,15.08
2018-09-11T05:02:06.623Z,15.24
2018-09-11T05:04:37.815Z,15.35
2018-09-11T05:07:06.843Z,15.35
2018-09-11T05:09:36.842Z,15.36
2018-09-11T05:12:05.361Z,15.36
2018-09-11T05:14:34.800Z,15.10
2018-09-11T05:17:07.326Z,15.37
2018-09-11T05:19:38.119Z,15.38
2018-09-11T05:22:12.447Z,15.39
2018-09-11T05:24:43.178Z,15.41
2018-09-11T05:27:13.837Z,15.42
2018-09-11T05:29:43.801Z,15.43
2018-09-11T05:32:18.111Z,15.44
2018-09-11T05:34:51.558Z,15.45
2018-09-11T05:37:33.549Z,15.44
2018-09-11T05:40:08.366Z,15.44
2018-09-11T05:42:38.837Z,15.45
2018-09-11T05:45:07.544Z,15.48
2018-09-11T05:47:43.742Z,15.45
2018-09-11T05:50:15.478Z,15.46
2018-09-11T05:52:47.578Z,15.48
2018-09-11T05:55:25.595Z,15.45
2018-09-11T05:58:03.249Z,15.47
2018-09-11T06:00:37.709Z,15.48
2018-09-11T06:03:06.608Z,15.47
2018-09-11T06:05:35.208Z,15.45
2018-09-11T06:08:04.838Z,15.45
2018-09-11T06:10:33.374Z,15.37
2018-09-11T06:13:03.178Z,15.13
2018-09-11T06:15:31.814Z,15.37
2018-09-11T06:18:02.904Z,15.34
2018-09-11T06:20:31.751Z,15.30
2018-09-11T06:23:00.501Z,15.00
2018-09-11T06:25:32.948Z,15.20
2018-09-11T06:28:01.514Z,15.16
2018-09-11T06:30:30.197Z,15.13
2018-09-11T06:32:59.029Z,15.14
2018-09-11T06:35:27.560Z,15.13
2018-09-11T06:37:56.457Z,14.55
2018-09-11T06:40:24.974Z,15.08
2018-09-11T06:42:53.841Z,15.06
2018-09-11T06:45:25.298Z,15.05
2018-09-11T06:47:54.120Z,14.59
2018-09-11T06:50:22.626Z,15.03
2018-09-11T06:52:51.430Z,14.99
2018-09-11T06:55:19.950Z,14.98
2018-09-11T06:57:48.554Z,14.97
2018-09-11T07:00:17.595Z,14.88
2018-09-11T07:02:46.091Z,14.94
2018-09-11T07:05:15.761Z,14.61
2018-09-11T07:07:44.343Z,14.91
2018-09-11T07:10:13.170Z,14.91
2018-09-11T07:12:41.817Z,14.93
2018-09-11T07:15:12.258Z,14.94
2018-09-11T07:17:40.848Z,14.90
2018-09-11T07:20:10.541Z,14.80
2018-09-11T07:22:39.030Z,14.82
2018-09-11T07:25:07.779Z,14.79
2018-09-11T07:27:36.488Z,14.80
2018-09-11T07:30:05.348Z,14.81
2018-09-11T07:32:33.990Z,14.81
2018-09-11T07:35:04.742Z,14.82
2018-09-11T07:37:33.315Z,14.88
2018-09-11T07:40:01.965Z,14.50
2018-09-11T07:42:31.770Z,14.90
2018-09-11T07:45:00.294Z,14.88
2018-09-11T07:47:30.638Z,14.86
2018-09-11T07:49:59.263Z,14.88
2018-09-11T07:52:29.623Z,14.90
2018-09-11T07:54:59.091Z,14.88
2018-09-11T07:57:29.114Z,14.85
2018-09-11T07:59:57.539Z,14.79
2018-09-11T08:02:27.650Z,14.73
2018-09-11T08:04:56.202Z,14.70
2018-09-11T08:07:25.487Z,14.60
2018-09-11T08:09:54.736Z,14.53
2018-09-11T08:12:23.833Z,14.50
2018-09-11T08:14:52.402Z,14.47
2018-09-11T08:17:21.084Z,14.54
2018-09-11T08:19:49.596Z,14.52
2018-09-11T08:22:19.598Z,14.51
2018-09-11T08:24:48.434Z,14.52
2018-09-11T08:27:16.963Z,14.49
2018-09-11T08:29:46.442Z,14.50
2018-09-11T08:32:15.121Z,14.44
2018-09-11T08:34:44.773Z,14.35
2018-09-11T08:37:13.345Z,14.31
2018-09-11T08:39:42.247Z,14.27
2018-09-11T08:42:10.730Z,14.22
2018-09-11T08:44:40.067Z,14.23
2018-09-11T08:47:08.551Z,14.22
2018-09-11T08:49:37.158Z,14.17
2018-09-11T08:52:06.895Z,14.07
2018-09-11T08:54:36.435Z,14.00
2018-09-11T08:57:04.954Z,14.00
2018-09-11T08:59:33.554Z,14.00
2018-09-11T09:02:05.846Z,13.96
2018-09-11T09:04:34.490Z,13.91
2018-09-11T09:07:03.062Z,13.81
2018-09-11T09:09:31.677Z,13.79
2018-09-11T09:12:00.930Z,13.85
2018-09-11T09:14:29.481Z,13.84
2018-09-11T09:16:58.570Z,13.90
2018-09-11T09:19:27.209Z,13.95
2018-09-11T09:21:58.751Z,13.98
2018-09-11T09:24:27.362Z,13.99
2018-09-11T09:26:57.106Z,13.78
2018-09-11T09:29:25.566Z,14.12
2018-09-11T09:31:55.322Z,14.10
2018-09-11T09:34:23.850Z,14.07
2018-09-11T09:36:53.556Z,14.04
2018-09-11T09:39:22.114Z,14.05
2018-09-11T09:41:52.555Z,14.07
2018-09-11T09:44:21.026Z,14.09
2018-09-11T09:46:49.681Z,14.08
2018-09-11T09:49:18.378Z,14.07
2018-09-11T09:51:47.006Z,14.04
2018-09-11T09:54:16.361Z,14.04
2018-09-11T09:56:44.986Z,14.04
2018-09-11T09:59:14.558Z,14.04
2018-09-11T10:01:48.718Z,14.05
2018-09-11T10:04:17.422Z,14.10
2018-09-11T10:06:46.018Z,14.17
2018-09-11T10:09:14.587Z,14.18
2018-09-11T10:11:43.166Z,14.24
2018-09-11T10:14:13.116Z,14.31
2018-09-11T10:16:41.639Z,14.25
2018-09-11T10:19:10.702Z,13.56
2018-09-11T10:21:39.276Z,14.13
2018-09-11T10:24:09.014Z,14.17
2018-09-11T10:26:37.667Z,14.25
2018-09-11T10:29:07.405Z,14.23
2018-09-11T10:31:36.554Z,14.21
2018-09-11T10:34:06.181Z,14.17
2018-09-11T10:36:34.663Z,14.14
2018-09-11T10:39:03.950Z,14.16
2018-09-11T10:41:32.618Z,14.16
2018-09-11T10:44:01.255Z,14.17
2018-09-11T10:46:30.018Z,13.97
2018-09-11T10:48:58.544Z,14.06
2018-09-11T10:51:30.534Z,14.05
2018-09-11T10:53:59.266Z,14.03
2018-09-11T10:56:28.291Z,14.05
2018-09-11T10:58:56.920Z,13.98
2018-09-11T11:01:28.902Z,14.03
2018-09-11T11:03:57.991Z,14.07
2018-09-11T11:06:26.786Z,14.07
2018-09-11T11:08:56.843Z,14.05
2018-09-11T11:11:25.338Z,14.03
2018-09-11T11:13:54.077Z,14.06
2018-09-11T11:16:24.386Z,14.05
2018-09-11T11:18:53.199Z,14.08
2018-09-11T11:21:23.990Z,14.08
2018-09-11T11:23:52.641Z,14.11
2018-09-11T11:26:21.298Z,14.15
2018-09-11T11:28:51.547Z,14.16
2018-09-11T11:31:20.839Z,14.17
2018-09-11T11:33:49.323Z,14.17
2018-09-11T11:36:19.864Z,14.16
2018-09-11T11:38:48.864Z,14.21
2018-09-11T11:41:18.042Z,13.93
2018-09-11T11:43:47.630Z,14.24
2018-09-11T11:46:18.927Z,14.27
2018-09-11T11:48:47.567Z,14.27
2018-09-11T11:51:16.771Z,14.07
2018-09-11T11:53:45.272Z,14.32
2018-09-11T11:56:15.417Z,14.34
2018-09-11T11:58:44.048Z,14.38
2018-09-11T12:01:15.393Z,14.42
2018-09-11T12:03:43.970Z,14.46
2018-09-11T12:06:13.417Z,14.40
2018-09-11T12:08:42.028Z,14.51
2018-09-11T12:11:12.657Z,14.56
2018-09-11T12:13:41.286Z,14.59
2018-09-11T12:16:11.157Z,14.64
2018-09-11T12:18:39.641Z,14.69
2018-09-11T12:21:09.594Z,14.74
2018-09-11T12:23:38.689Z,14.80
2018-09-11T12:26:07.594Z,14.62
2018-09-11T12:28:36.370Z,14.97
2018-09-11T12:31:06.661Z,15.04
2018-09-11T12:33:36.154Z,15.14
2018-09-11T12:36:05.542Z,15.22
2018-09-11T12:38:34.082Z,15.30
2018-09-11T12:41:02.865Z,15.35
2018-09-11T12:43:31.439Z,15.40
2018-09-11T12:46:00.283Z,15.46
2018-09-11T12:48:29.246Z,15.49
2018-09-11T12:50:57.718Z,15.52
2018-09-11T12:53:26.602Z,15.55
2018-09-11T12:55:55.107Z,15.57
2018-09-11T12:58:25.462Z,14.98
2018-09-11T13:00:53.984Z,15.61
2018-09-11T13:03:24.206Z,15.18
2018-09-11T13:05:52.715Z,15.67
2018-09-11T13:08:22.148Z,15.74
2018-09-11T13:10:50.695Z,15.78
2018-09-11T13:13:19.438Z,15.84
2018-09-11T13:15:47.899Z,15.93
2018-09-11T13:18:16.493Z,16.00
2018-09-11T13:20:45.617Z,16.08
2018-09-11T13:23:14.162Z,16.14
2018-09-11T13:25:43.786Z,16.22
2018-09-11T13:28:12.330Z,16.25
2018-09-11T13:30:41.881Z,15.96
2018-09-11T13:33:10.358Z,16.27
2018-09-11T13:35:39.271Z,16.32
2018-09-11T13:38:07.815Z,16.36
2018-09-11T13:40:36.431Z,16.36
2018-09-11T13:43:06.366Z,16.37
2018-09-11T13:45:34.915Z,16.40
2018-09-11T13:48:03.593Z,16.39
2018-09-11T13:50:32.418Z,16.38
2018-09-11T13:53:01.394Z,16.37
2018-09-11T13:55:29.814Z,16.42
2018-09-11T13:57:58.892Z,16.47
2018-09-11T14:00:27.438Z,16.50
2018-09-11T14:02:56.114Z,16.54
2018-09-11T14:05:24.723Z,16.60
2018-09-11T14:07:53.375Z,16.68
2018-09-11T14:10:22.082Z,16.75
2018-09-11T14:12:50.679Z,16.77
2018-09-11T14:15:19.626Z,16.59
2018-09-11T14:17:48.109Z,16.88
2018-09-11T14:20:16.815Z,16.92
2018-09-11T14:22:45.298Z,16.92
2018-09-11T14:25:14.114Z,16.91
2018-09-11T14:27:42.654Z,16.90
2018-09-11T14:30:11.137Z,16.89
2018-09-11T14:32:40.745Z,16.83
2018-09-11T14:35:09.458Z,16.83
2018-09-11T14:37:38.751Z,16.35
2018-09-11T14:40:07.395Z,16.76
2018-09-11T14:42:36.643Z,16.74
2018-09-11T14:45:05.246Z,16.72
2018-09-11T14:47:39.083Z,16.69
2018-09-11T14:50:07.818Z,16.52
2018-09-11T14:52:36.717Z,16.36
2018-09-11T14:55:05.436Z,16.30
2018-09-11T14:57:34.795Z,16.31
2018-09-11T15:00:03.636Z,16.34
2018-09-11T15:02:32.478Z,16.34
2018-09-11T15:05:00.987Z,16.36
2018-09-11T15:07:30.004Z,16.36
2018-09-11T15:09:58.660Z,16.32
2018-09-11T15:12:27.290Z,16.29
2018-09-11T15:14:55.907Z,15.90
2018-09-11T15:17:24.390Z,16.23
2018-09-11T15:19:53.323Z,16.03
2018-09-11T15:22:21.825Z,15.86
2018-09-11T15:24:51.761Z,15.18
2018-09-11T15:27:20.239Z,15.83
2018-09-11T15:29:48.984Z,15.79
2018-09-11T15:32:18.285Z,15.80
2018-09-11T15:34:46.967Z,15.81
2018-09-11T15:37:15.468Z,15.79
2018-09-11T15:39:44.093Z,15.76
2018-09-11T15:42:12.658Z,15.79
2018-09-11T15:44:41.302Z,15.74
2018-09-11T15:47:10.506Z,15.73
2018-09-11T15:49:38.939Z,15.70
2018-09-11T15:52:07.739Z,15.71
2018-09-11T15:54:36.352Z,15.73
2018-09-11T15:57:04.983Z,15.79
2018-09-11T15:59:33.546Z,15.75
2018-09-11T16:02:02.941Z,15.80
2018-09-11T16:04:31.604Z,15.28
2018-09-11T16:07:00.300Z,15.80
2018-09-11T16:09:29.086Z,15.80
2018-09-11T16:11:57.658Z,15.81
2018-09-11T16:14:26.338Z,15.84
2018-09-11T16:16:54.927Z,15.80
2018-09-11T16:19:23.482Z,15.80
2018-09-11T16:21:52.505Z,15.78
2018-09-11T16:24:21.008Z,15.78
2018-09-11T16:26:49.818Z,15.41
2018-09-11T16:29:18.357Z,15.77
2018-09-11T16:31:47.097Z,15.78
2018-09-11T16:34:15.725Z,15.80
2018-09-11T16:36:44.432Z,15.80
2018-09-11T16:39:13.641Z,15.82
2018-09-11T16:41:42.547Z,15.86
2018-09-11T16:44:11.094Z,15.73
2018-09-11T16:46:39.793Z,15.85
2018-09-11T16:49:09.206Z,15.87
2018-09-11T16:51:37.998Z,15.82
2018-09-11T16:54:06.949Z,15.85
2018-09-11T16:56:35.469Z,15.83
2018-09-11T16:59:04.303Z,15.82
2018-09-11T17:01:32.790Z,15.85
2018-09-11T17:04:01.529Z,15.83
2018-09-11T17:06:30.086Z,15.85
2018-09-11T17:08:58.575Z,15.86
2018-09-11T17:11:27.246Z,15.83
2018-09-11T17:13:55.742Z,15.84
2018-09-11T17:16:24.740Z,15.86
2018-09-11T17:18:54.268Z,15.87
2018-09-11T17:21:23.042Z,15.84
2018-09-11T17:23:51.569Z,15.84
2018-09-11T17:26:20.246Z,15.80
2018-09-11T17:28:49.664Z,15.85
2018-09-11T17:31:18.252Z,15.83
2018-09-11T17:33:46.874Z,15.79
2018-09-11T17:36:15.417Z,15.79
2018-09-11T17:38:44.716Z,15.71
2018-09-11T17:41:13.286Z,15.69
2018-09-11T17:43:42.291Z,15.62
2018-09-11T17:46:10.803Z,15.58
2018-09-11T17:48:39.943Z,15.56
2018-09-11T17:51:08.514Z,15.58
2018-09-11T17:53:37.221Z,15.58
2018-09-11T17:56:05.851Z,15.57
2018-09-11T17:58:34.576Z,15.53
2018-09-11T18:01:03.255Z,15.47
2018-09-11T18:03:31.842Z,15.47
2018-09-11T18:06:00.362Z,15.47
2018-09-11T18:08:28.864Z,15.47
2018-09-11T18:10:57.729Z,15.49
2018-09-11T18:13:26.225Z,15.47
2018-09-11T18:15:54.834Z,15.49
2018-09-11T18:18:23.394Z,15.50
2018-09-11T18:20:52.175Z,15.52
2018-09-11T18:23:20.759Z,15.52
2018-09-11T18:25:49.602Z,15.53
2018-09-11T18:28:18.283Z,15.38
2018-09-11T18:30:46.838Z,15.52
2018-09-11T18:33:15.742Z,15.53
2018-09-11T18:35:44.883Z,15.55
2018-09-11T18:38:13.630Z,15.55
2018-09-11T18:40:42.263Z,15.57
2018-09-11T18:43:10.859Z,15.59
2018-09-11T18:45:39.407Z,15.61
2018-09-11T18:48:07.919Z,15.60
2018-09-11T18:50:36.730Z,15.62
2018-09-11T18:53:05.350Z,15.61
2018-09-11T18:55:33.944Z,15.61
2018-09-11T18:58:02.468Z,15.60
2018-09-11T19:00:31.932Z,15.58
2018-09-11T19:03:01.723Z,15.60
2018-09-11T19:05:30.860Z,15.58
2018-09-11T19:08:00.079Z,15.57
2018-09-11T19:10:29.081Z,15.59
2018-09-11T19:12:57.573Z,15.59
2018-09-11T19:15:26.170Z,15.57
2018-09-11T19:17:54.895Z,15.62
2018-09-11T19:20:23.529Z,15.62
2018-09-11T19:22:52.170Z,15.64
2018-09-11T19:25:20.630Z,15.62
2018-09-11T19:27:49.250Z,15.59
2018-09-11T19:30:17.759Z,15.57
2018-09-11T19:32:46.525Z,15.56
2018-09-11T19:35:15.104Z,15.54
2018-09-11T19:37:43.643Z,15.52
2018-09-11T19:40:12.362Z,15.52
2018-09-11T19:42:40.846Z,15.52
2018-09-11T19:45:10.434Z,15.53
2018-09-11T19:47:38.931Z,15.51
2018-09-11T19:50:08.099Z,15.50
2018-09-11T19:52:36.534Z,15.51
2018-09-11T19:55:05.635Z,15.51
2018-09-11T19:57:34.191Z,15.48
2018-09-11T20:00:02.803Z,15.43
2018-09-11T20:02:31.945Z,15.49
2018-09-11T20:05:00.619Z,15.45
2018-09-11T20:07:29.316Z,15.22
2018-09-11T20:09:58.328Z,15.42
2018-09-11T20:12:27.244Z,15.10
2018-09-11T20:14:55.802Z,15.42
2018-09-11T20:17:25.288Z,15.04
2018-09-11T20:19:53.932Z,15.37
2018-09-11T20:22:22.630Z,15.37
2018-09-11T20:24:51.163Z,15.34
2018-09-11T20:27:19.886Z,15.31
2018-09-11T20:29:48.510Z,15.31
2018-09-11T20:32:16.975Z,15.34
2018-09-11T20:34:45.746Z,15.34
2018-09-11T20:37:14.344Z,15.34
2018-09-11T20:39:43.222Z,15.34
2018-09-11T20:42:11.702Z,15.34
2018-09-11T20:44:40.224Z,15.35
2018-09-11T20:47:08.830Z,15.34
2018-09-11T20:49:37.425Z,15.31
2018-09-11T20:52:06.622Z,15.30
2018-09-11T20:54:35.199Z,15.29
2018-09-11T20:57:03.898Z,15.28
2018-09-11T20:59:32.991Z,15.28
2018-09-11T21:02:01.878Z,15.27
2018-09-11T21:04:30.390Z,15.22
2018-09-11T21:06:59.014Z,15.27
2018-09-11T21:09:27.514Z,15.28
2018-09-11T21:11:56.070Z,15.30
2018-09-11T21:14:24.845Z,15.31
2018-09-11T21:16:53.528Z,15.31
2018-09-11T21:19:22.230Z,15.29
2018-09-11T21:21:50.717Z,15.29
2018-09-11T21:24:19.230Z,15.30
2018-09-11T21:26:48.004Z,15.30
2018-09-11T21:29:16.596Z,15.31
2018-09-11T21:31:45.351Z,15.31
2018-09-11T21:34:13.826Z,15.23
2018-09-11T21:36:42.538Z,15.26
2018-09-11T21:39:12.179Z,15.25
2018-09-11T21:41:40.886Z,15.23
2018-09-11T21:44:09.506Z,15.24
2018-09-11T21:46:38.270Z,14.97
2018-09-11T21:51:42.966Z,15.23
2018-09-11T21:54:11.727Z,15.22
2018-09-11T21:56:40.254Z,15.23
2018-09-11T21:59:08.883Z,15.23
2018-09-11T22:01:42.475Z,15.22
2018-09-11T22:04:11.106Z,15.18
2018-09-11T22:06:39.638Z,15.17
2018-09-11T22:09:09.886Z,15.18
2018-09-11T22:11:38.508Z,15.08
2018-09-11T22:14:07.442Z,15.17
2018-09-11T22:16:36.166Z,14.80
2018-09-11T22:19:04.878Z,15.16
2018-09-11T22:21:33.690Z,15.16
2018-09-11T22:24:02.409Z,15.19
2018-09-11T22:26:30.978Z,15.20
2018-09-11T22:28:59.662Z,15.19
2018-09-11T22:31:28.769Z,14.90
2018-09-11T22:33:57.369Z,15.16
2018-09-11T22:36:26.446Z,15.13
2018-09-11T22:38:55.004Z,15.11
2018-09-11T22:41:23.761Z,15.09
2018-09-11T22:43:52.682Z,15.10
2018-09-11T22:46:21.630Z,15.09
2018-09-11T22:48:50.264Z,15.10
2018-09-11T22:51:18.872Z,15.09
2018-09-11T22:53:47.386Z,15.11
2018-09-11T22:56:15.854Z,15.10
2018-09-11T22:58:44.625Z,15.04
2018-09-11T23:01:13.382Z,15.03
2018-09-11T23:03:42.128Z,15.02
2018-09-11T23:06:10.629Z,14.98
2018-09-11T23:08:39.170Z,14.97
2018-09-11T23:11:07.834Z,14.95
2018-09-11T23:13:36.482Z,14.92
2018-09-11T23:16:05.161Z,14.90
2018-09-11T23:18:33.749Z,14.91
2018-09-11T23:21:02.362Z,14.91
2018-09-11T23:23:30.838Z,14.89
2018-09-11T23:25:59.470Z,14.90
2018-09-11T23:28:28.126Z,14.91
2018-09-11T23:30:56.766Z,14.93
2018-09-11T23:33:25.478Z,14.94
2018-09-11T23:35:54.052Z,14.90
2018-09-11T23:38:22.726Z,14.93
2018-09-11T23:40:51.213Z,14.89
2018-09-11T23:43:19.969Z,14.83
2018-09-11T23:45:48.572Z,14.87
2018-09-11T23:48:17.173Z,14.88
2018-09-11T23:50:45.646Z,14.87
2018-09-11T23:53:14.243Z,14.84
2018-09-11T23:55:42.933Z,14.56
2018-09-11T23:58:11.587Z,14.84
